Auburn, WA

3:02 PM PST on March 04, 2015 (GMT -0800)
Celery Ave | Change Station
CLOSE
Current Station
Personal Weather Station
Location: Algona, WA
Elevation: 66 ft
Nearby Weather Stations

Elev 66 ft 47.29 °N, 122.25 °W | Updated 7 minutes ago

Clear
Clear
54.5 °F
Feels Like 54.5 °F
N
1.0
Wind Variable Wind from ENE
Gusts 6.0 mph

Today
High -- | Low -- °F
--% Chance of Precip.
Yesterday
High -- | Low -- °F
Precip. -- in
6:43 AM 5:58 PM
Waxing Gibbous, 99% visible
Pressure 30.31 in
Visibility 10.0 miles
Clouds Scattered Clouds 25000 ft
Dew Point 26 °F
Humidity 34%
Rainfall 0.00 in
Snow Depth Not available.
UV 3 out of 12
Pollen 7.40 out of 12
Air Quality Not available.
Flu Activity Not available.
METAR KSEA 042153Z 24005KT 10SM SCT250 11/M06 A3028 RMK AO2 SLP263 T01061061

More Conditions Fewer Conditions

Pressure 30.31 in
Visibility 10.0 miles
Clouds Scattered Clouds 25000 ft
Dew Point 26 °F
Humidity 34%
Rainfall 0.00 in
Snow Depth Not available.
UV 3 out of 12
Pollen 7.40 out of 12
Air Quality Not available.
Flu Activity Not available.
METAR KSEA 042153Z 24005KT 10SM SCT250 11/M06 A3028 RMK AO2 SLP263 T01061061

More Conditions Fewer Conditions

10-Day Weather Forecast

Almanac

Astronomy

Mar. 04, 2015 Rise Set
Actual Time
Civil Twilight
Nautical Twilight
Astronomical Twilight
Moon
Length of Visible Light
Length of Day
Tomorrow will be .
, % of the Moon is Illuminated

Today's Extremes

State Highs State Lows

Community

WunderPhotos

Upload Photos

1,802,596 photos uploaded!

WunderBlogs® & News

Nearby

Air Quality

  Air Quality AQ Index Pollutant
Not available.

Snow Depth

Station Depth Elevation

Earthquake Activity

City Distance Mag. Time & Date
Minimum magnitude displayed is 2.5.

Coastal Water Temperatures

Place Temperature

Nearby Weather Stations